sensor_id;sensor_type;location;lat;lon;timestamp;P1;durP1;ratioP1;P2;durP2;ratioP2
3321;SDS011;1673;51.388;7.086;2022-12-11T00:02:12;110.47;;;33.53;;
3321;SDS011;1673;51.388;7.086;2022-12-11T00:04:42;109.90;;;35.08;;
3321;SDS011;1673;51.388;7.086;2022-12-11T00:07:14;114.55;;;33.22;;
3321;SDS011;1673;51.388;7.086;2022-12-11T00:09:44;116.90;;;35.03;;
3321;SDS011;1673;51.388;7.086;2022-12-11T00:12:14;128.38;;;36.63;;
3321;SDS011;1673;51.388;7.086;2022-12-11T00:14:44;113.68;;;33.78;;
3321;SDS011;1673;51.388;7.086;2022-12-11T00:17:14;124.60;;;37.25;;
3321;SDS011;1673;51.388;7.086;2022-12-11T00:19:43;134.68;;;36.50;;
3321;SDS011;1673;51.388;7.086;2022-12-11T00:22:15;137.35;;;37.55;;
3321;SDS011;1673;51.388;7.086;2022-12-11T00:24:45;137.27;;;36.40;;
3321;SDS011;1673;51.388;7.086;2022-12-11T00:27:15;129.88;;;36.78;;
3321;SDS011;1673;51.388;7.086;2022-12-11T00:29:46;142.65;;;39.33;;
3321;SDS011;1673;51.388;7.086;2022-12-11T00:32:15;148.48;;;37.03;;
3321;SDS011;1673;51.388;7.086;2022-12-11T00:34:45;149.52;;;38.10;;
3321;SDS011;1673;51.388;7.086;2022-12-11T00:37:17;156.63;;;40.17;;
3321;SDS011;1673;51.388;7.086;2022-12-11T00:39:47;164.48;;;43.05;;
3321;SDS011;1673;51.388;7.086;2022-12-11T00:42:16;152.00;;;41.97;;
3321;SDS011;1673;51.388;7.086;2022-12-11T00:44:46;164.27;;;39.30;;
3321;SDS011;1673;51.388;7.086;2022-12-11T00:47:16;171.27;;;40.60;;
3321;SDS011;1673;51.388;7.086;2022-12-11T00:49:45;173.73;;;41.58;;
3321;SDS011;1673;51.388;7.086;2022-12-11T00:52:18;171.68;;;40.95;;
3321;SDS011;1673;51.388;7.086;2022-12-11T00:54:48;188.48;;;43.72;;
3321;SDS011;1673;51.388;7.086;2022-12-11T00:57:17;178.20;;;42.03;;
3321;SDS011;1673;51.388;7.086;2022-12-11T00:59:47;165.48;;;41.45;;
3321;SDS011;1673;51.388;7.086;2022-12-11T01:02:16;166.30;;;42.08;;
3321;SDS011;1673;51.388;7.086;2022-12-11T01:04:46;184.98;;;44.63;;
3321;SDS011;1673;51.388;7.086;2022-12-11T01:07:19;183.27;;;44.88;;
3321;SDS011;1673;51.388;7.086;2022-12-11T01:09:48;182.45;;;42.13;;
3321;SDS011;1673;51.388;7.086;2022-12-11T01:12:30;172.73;;;44.70;;
3321;SDS011;1673;51.388;7.086;2022-12-11T01:15:00;180.80;;;46.50;;
3321;SDS011;1673;51.388;7.086;2022-12-11T01:17:31;191.48;;;46.20;;
3321;SDS011;1673;51.388;7.086;2022-12-11T01:20:01;197.15;;;46.88;;
3321;SDS011;1673;51.388;7.086;2022-12-11T01:22:33;202.88;;;48.95;;
3321;SDS011;1673;51.388;7.086;2022-12-11T01:25:03;204.03;;;49.63;;
3321;SDS011;1673;51.388;7.086;2022-12-11T01:27:33;210.20;;;46.70;;
3321;SDS011;1673;51.388;7.086;2022-12-11T01:30:04;204.00;;;46.92;;
3321;SDS011;1673;51.388;7.086;2022-12-11T01:32:35;222.65;;;49.83;;
3321;SDS011;1673;51.388;7.086;2022-12-11T01:35:05;205.60;;;49.83;;
3321;SDS011;1673;51.388;7.086;2022-12-11T01:37:39;204.80;;;47.85;;
3321;SDS011;1673;51.388;7.086;2022-12-11T01:40:10;198.75;;;46.80;;
3321;SDS011;1673;51.388;7.086;2022-12-11T01:42:40;205.68;;;46.83;;
3321;SDS011;1673;51.388;7.086;2022-12-11T01:48:07;201.53;;;45.70;;
3321;SDS011;1673;51.388;7.086;2022-12-11T01:50:40;222.83;;;51.30;;
3321;SDS011;1673;51.388;7.086;2022-12-11T01:53:15;219.88;;;50.20;;
3321;SDS011;1673;51.388;7.086;2022-12-11T01:55:47;224.40;;;50.53;;
3321;SDS011;1673;51.388;7.086;2022-12-11T01:58:18;228.10;;;50.42;;
3321;SDS011;1673;51.388;7.086;2022-12-11T02:00:48;237.73;;;50.53;;
3321;SDS011;1673;51.388;7.086;2022-12-11T02:03:18;224.77;;;50.28;;
3321;SDS011;1673;51.388;7.086;2022-12-11T02:05:48;204.75;;;47.45;;
3321;SDS011;1673;51.388;7.086;2022-12-11T02:08:20;223.15;;;50.03;;
3321;SDS011;1673;51.388;7.086;2022-12-11T02:10:55;207.02;;;48.45;;
3321;SDS011;1673;51.388;7.086;2022-12-11T02:13:32;200.55;;;47.30;;
3321;SDS011;1673;51.388;7.086;2022-12-11T02:16:05;195.10;;;46.03;;
3321;SDS011;1673;51.388;7.086;2022-12-11T02:18:40;175.63;;;42.70;;
3321;SDS011;1673;51.388;7.086;2022-12-11T02:21:13;186.45;;;44.45;;
3321;SDS011;1673;51.388;7.086;2022-12-11T02:24:00;184.25;;;44.10;;
3321;SDS011;1673;51.388;7.086;2022-12-11T02:26:49;207.27;;;47.30;;
3321;SDS011;1673;51.388;7.086;2022-12-11T02:29:29;176.07;;;43.88;;
3321;SDS011;1673;51.388;7.086;2022-12-11T02:32:03;183.23;;;44.80;;
3321;SDS011;1673;51.388;7.086;2022-12-11T02:34:38;174.40;;;45.85;;
3321;SDS011;1673;51.388;7.086;2022-12-11T02:37:11;189.93;;;45.47;;
3321;SDS011;1673;51.388;7.086;2022-12-11T02:39:43;180.40;;;45.22;;
3321;SDS011;1673;51.388;7.086;2022-12-11T02:42:14;193.07;;;44.20;;
3321;SDS011;1673;51.388;7.086;2022-12-11T02:44:46;200.43;;;46.28;;
3321;SDS011;1673;51.388;7.086;2022-12-11T02:47:17;194.35;;;48.05;;
3321;SDS011;1673;51.388;7.086;2022-12-11T02:49:48;176.50;;;44.20;;
3321;SDS011;1673;51.388;7.086;2022-12-11T02:52:19;180.10;;;42.40;;
3321;SDS011;1673;51.388;7.086;2022-12-11T02:54:50;165.93;;;41.83;;
3321;SDS011;1673;51.388;7.086;2022-12-11T02:57:21;172.82;;;42.70;;
3321;SDS011;1673;51.388;7.086;2022-12-11T02:59:56;153.32;;;40.00;;
3321;SDS011;1673;51.388;7.086;2022-12-11T03:02:25;167.43;;;41.85;;
3321;SDS011;1673;51.388;7.086;2022-12-11T03:04:55;146.23;;;38.08;;
3321;SDS011;1673;51.388;7.086;2022-12-11T03:07:26;154.73;;;38.97;;
3321;SDS011;1673;51.388;7.086;2022-12-11T03:10:00;149.43;;;39.67;;
3321;SDS011;1673;51.388;7.086;2022-12-11T03:12:32;147.40;;;39.20;;
3321;SDS011;1673;51.388;7.086;2022-12-11T03:15:08;160.02;;;39.17;;
3321;SDS011;1673;51.388;7.086;2022-12-11T03:17:43;153.90;;;38.50;;
3321;SDS011;1673;51.388;7.086;2022-12-11T03:20:17;169.98;;;39.33;;
3321;SDS011;1673;51.388;7.086;2022-12-11T03:22:51;162.18;;;41.08;;
3321;SDS011;1673;51.388;7.086;2022-12-11T03:25:26;149.18;;;37.60;;
3321;SDS011;1673;51.388;7.086;2022-12-11T03:28:01;152.60;;;39.70;;
3321;SDS011;1673;51.388;7.086;2022-12-11T03:30:36;146.90;;;40.85;;
3321;SDS011;1673;51.388;7.086;2022-12-11T03:33:07;151.18;;;39.70;;
3321;SDS011;1673;51.388;7.086;2022-12-11T03:35:39;149.43;;;39.97;;
3321;SDS011;1673;51.388;7.086;2022-12-11T03:38:12;140.00;;;38.40;;
3321;SDS011;1673;51.388;7.086;2022-12-11T03:40:45;135.67;;;36.33;;
3321;SDS011;1673;51.388;7.086;2022-12-11T03:43:17;128.52;;;36.75;;
3321;SDS011;1673;51.388;7.086;2022-12-11T03:45:51;136.02;;;37.90;;
3321;SDS011;1673;51.388;7.086;2022-12-11T03:48:22;137.57;;;38.15;;
3321;SDS011;1673;51.388;7.086;2022-12-11T03:50:52;128.57;;;35.08;;
3321;SDS011;1673;51.388;7.086;2022-12-11T03:53:23;118.03;;;34.65;;
3321;SDS011;1673;51.388;7.086;2022-12-11T03:55:54;116.05;;;32.55;;
3321;SDS011;1673;51.388;7.086;2022-12-11T03:58:26;123.00;;;33.33;;
3321;SDS011;1673;51.388;7.086;2022-12-11T04:00:58;103.63;;;32.42;;
3321;SDS011;1673;51.388;7.086;2022-12-11T04:03:28;113.97;;;32.65;;
3321;SDS011;1673;51.388;7.086;2022-12-11T04:05:57;123.45;;;34.38;;
3321;SDS011;1673;51.388;7.086;2022-12-11T04:08:27;117.70;;;33.63;;
3321;SDS011;1673;51.388;7.086;2022-12-11T04:10:56;127.30;;;35.85;;
3321;SDS011;1673;51.388;7.086;2022-12-11T04:13:39;118.53;;;35.55;;
3321;SDS011;1673;51.388;7.086;2022-12-11T04:16:12;111.65;;;34.00;;
3321;SDS011;1673;51.388;7.086;2022-12-11T04:18:39;117.43;;;32.42;;
3321;SDS011;1673;51.388;7.086;2022-12-11T04:21:23;105.47;;;33.45;;
3321;SDS011;1673;51.388;7.086;2022-12-11T04:24:05;115.40;;;33.72;;
3321;SDS011;1673;51.388;7.086;2022-12-11T04:26:45;119.47;;;34.58;;
3321;SDS011;1673;51.388;7.086;2022-12-11T04:29:15;102.90;;;31.53;;
3321;SDS011;1673;51.388;7.086;2022-12-11T04:31:47;110.68;;;36.72;;
3321;SDS011;1673;51.388;7.086;2022-12-11T04:34:17;124.15;;;37.00;;
3321;SDS011;1673;51.388;7.086;2022-12-11T04:36:47;107.38;;;34.08;;
3321;SDS011;1673;51.388;7.086;2022-12-11T04:39:16;111.40;;;34.95;;
3321;SDS011;1673;51.388;7.086;2022-12-11T04:41:46;103.90;;;34.35;;
3321;SDS011;1673;51.388;7.086;2022-12-11T04:44:16;100.43;;;32.00;;
3321;SDS011;1673;51.388;7.086;2022-12-11T04:46:49;107.68;;;31.70;;
3321;SDS011;1673;51.388;7.086;2022-12-11T04:49:18;98.93;;;30.10;;
3321;SDS011;1673;51.388;7.086;2022-12-11T04:51:48;97.18;;;31.88;;
3321;SDS011;1673;51.388;7.086;2022-12-11T04:54:18;99.22;;;32.00;;
3321;SDS011;1673;51.388;7.086;2022-12-11T04:56:47;84.80;;;29.20;;
3321;SDS011;1673;51.388;7.086;2022-12-11T04:59:17;91.85;;;29.73;;
3321;SDS011;1673;51.388;7.086;2022-12-11T05:01:49;86.18;;;27.65;;
3321;SDS011;1673;51.388;7.086;2022-12-11T05:04:19;92.90;;;29.75;;
3321;SDS011;1673;51.388;7.086;2022-12-11T05:06:48;85.85;;;27.95;;
3321;SDS011;1673;51.388;7.086;2022-12-11T05:09:18;75.38;;;27.45;;
3321;SDS011;1673;51.388;7.086;2022-12-11T05:11:48;82.75;;;26.70;;
3321;SDS011;1673;51.388;7.086;2022-12-11T05:14:18;86.97;;;27.95;;
3321;SDS011;1673;51.388;7.086;2022-12-11T05:16:50;75.03;;;25.35;;
3321;SDS011;1673;51.388;7.086;2022-12-11T05:19:20;76.53;;;26.92;;
3321;SDS011;1673;51.388;7.086;2022-12-11T05:21:49;82.00;;;26.70;;
3321;SDS011;1673;51.388;7.086;2022-12-11T05:24:19;75.47;;;27.02;;
3321;SDS011;1673;51.388;7.086;2022-12-11T05:26:48;75.63;;;25.65;;
3321;SDS011;1673;51.388;7.086;2022-12-11T05:29:18;66.95;;;24.92;;
3321;SDS011;1673;51.388;7.086;2022-12-11T05:31:50;72.93;;;26.52;;
3321;SDS011;1673;51.388;7.086;2022-12-11T05:34:20;76.15;;;26.77;;
3321;SDS011;1673;51.388;7.086;2022-12-11T05:36:50;71.53;;;25.40;;
3321;SDS011;1673;51.388;7.086;2022-12-11T05:39:19;70.07;;;24.50;;
3321;SDS011;1673;51.388;7.086;2022-12-11T05:41:49;78.30;;;25.17;;
3321;SDS011;1673;51.388;7.086;2022-12-11T05:44:19;73.13;;;24.65;;
3321;SDS011;1673;51.388;7.086;2022-12-11T05:46:51;75.93;;;27.58;;
3321;SDS011;1673;51.388;7.086;2022-12-11T05:49:21;76.72;;;27.00;;
3321;SDS011;1673;51.388;7.086;2022-12-11T05:51:56;79.53;;;27.15;;
3321;SDS011;1673;51.388;7.086;2022-12-11T05:54:26;81.82;;;27.33;;
3321;SDS011;1673;51.388;7.086;2022-12-11T05:56:55;86.20;;;30.13;;
3321;SDS011;1673;51.388;7.086;2022-12-11T05:59:25;88.57;;;27.77;;
3321;SDS011;1673;51.388;7.086;2022-12-11T06:01:57;85.55;;;29.15;;
3321;SDS011;1673;51.388;7.086;2022-12-11T06:04:27;82.20;;;27.90;;
3321;SDS011;1673;51.388;7.086;2022-12-11T06:06:56;88.55;;;28.33;;
3321;SDS011;1673;51.388;7.086;2022-12-11T06:09:26;78.35;;;28.42;;
3321;SDS011;1673;51.388;7.086;2022-12-11T06:11:56;85.95;;;29.13;;
3321;SDS011;1673;51.388;7.086;2022-12-11T06:14:25;91.70;;;29.58;;
3321;SDS011;1673;51.388;7.086;2022-12-11T06:16:57;86.40;;;29.23;;
3321;SDS011;1673;51.388;7.086;2022-12-11T06:19:27;86.22;;;29.60;;
3321;SDS011;1673;51.388;7.086;2022-12-11T06:22:02;89.63;;;28.83;;
3321;SDS011;1673;51.388;7.086;2022-12-11T06:24:31;91.18;;;30.42;;
3321;SDS011;1673;51.388;7.086;2022-12-11T06:27:01;96.22;;;29.25;;
3321;SDS011;1673;51.388;7.086;2022-12-11T06:29:31;89.40;;;30.33;;
3321;SDS011;1673;51.388;7.086;2022-12-11T06:32:03;91.80;;;30.70;;
3321;SDS011;1673;51.388;7.086;2022-12-11T06:34:33;93.43;;;32.60;;
3321;SDS011;1673;51.388;7.086;2022-12-11T06:37:03;113.03;;;33.65;;
3321;SDS011;1673;51.388;7.086;2022-12-11T06:39:33;97.10;;;32.10;;
3321;SDS011;1673;51.388;7.086;2022-12-11T06:42:04;104.05;;;33.95;;
3321;SDS011;1673;51.388;7.086;2022-12-11T06:44:35;99.65;;;32.72;;
3321;SDS011;1673;51.388;7.086;2022-12-11T06:47:07;101.75;;;32.92;;
3321;SDS011;1673;51.388;7.086;2022-12-11T06:49:37;94.35;;;29.85;;
3321;SDS011;1673;51.388;7.086;2022-12-11T06:52:06;96.55;;;31.83;;
3321;SDS011;1673;51.388;7.086;2022-12-11T06:54:43;89.25;;;31.10;;
3321;SDS011;1673;51.388;7.086;2022-12-11T06:57:13;86.32;;;31.05;;
3321;SDS011;1673;51.388;7.086;2022-12-11T06:59:43;92.35;;;31.73;;
3321;SDS011;1673;51.388;7.086;2022-12-11T07:02:16;85.28;;;30.05;;
3321;SDS011;1673;51.388;7.086;2022-12-11T07:04:47;82.93;;;29.42;;
3321;SDS011;1673;51.388;7.086;2022-12-11T07:07:20;93.72;;;29.05;;
3321;SDS011;1673;51.388;7.086;2022-12-11T07:09:50;83.13;;;28.83;;
3321;SDS011;1673;51.388;7.086;2022-12-11T07:12:20;94.57;;;30.58;;
3321;SDS011;1673;51.388;7.086;2022-12-11T07:14:49;83.97;;;27.73;;
3321;SDS011;1673;51.388;7.086;2022-12-11T07:17:22;76.68;;;27.75;;
3321;SDS011;1673;51.388;7.086;2022-12-11T07:19:52;89.05;;;30.08;;
3321;SDS011;1673;51.388;7.086;2022-12-11T07:22:21;86.00;;;29.35;;
3321;SDS011;1673;51.388;7.086;2022-12-11T07:24:51;75.68;;;27.85;;
3321;SDS011;1673;51.388;7.086;2022-12-11T07:27:21;78.80;;;27.85;;
3321;SDS011;1673;51.388;7.086;2022-12-11T07:29:50;78.85;;;29.58;;
3321;SDS011;1673;51.388;7.086;2022-12-11T07:32:23;89.47;;;29.33;;
3321;SDS011;1673;51.388;7.086;2022-12-11T07:34:54;84.45;;;30.35;;
3321;SDS011;1673;51.388;7.086;2022-12-11T07:37:24;81.22;;;27.42;;
3321;SDS011;1673;51.388;7.086;2022-12-11T07:39:53;79.55;;;27.95;;
3321;SDS011;1673;51.388;7.086;2022-12-11T07:42:23;80.45;;;28.42;;
3321;SDS011;1673;51.388;7.086;2022-12-11T07:44:52;78.00;;;28.20;;
3321;SDS011;1673;51.388;7.086;2022-12-11T07:47:25;80.55;;;27.50;;
3321;SDS011;1673;51.388;7.086;2022-12-11T07:49:54;81.43;;;28.40;;
3321;SDS011;1673;51.388;7.086;2022-12-11T07:52:24;72.93;;;26.60;;
3321;SDS011;1673;51.388;7.086;2022-12-11T07:54:54;76.38;;;29.15;;
3321;SDS011;1673;51.388;7.086;2022-12-11T07:57:23;62.27;;;25.90;;
3321;SDS011;1673;51.388;7.086;2022-12-11T07:59:54;77.30;;;27.48;;
3321;SDS011;1673;51.388;7.086;2022-12-11T08:02:26;76.35;;;27.23;;
3321;SDS011;1673;51.388;7.086;2022-12-11T08:05:02;70.43;;;28.20;;
3321;SDS011;1673;51.388;7.086;2022-12-11T08:07:33;75.93;;;27.30;;
3321;SDS011;1673;51.388;7.086;2022-12-11T08:10:03;76.43;;;28.70;;
3321;SDS011;1673;51.388;7.086;2022-12-11T08:12:34;82.30;;;28.50;;
3321;SDS011;1673;51.388;7.086;2022-12-11T08:15:04;79.55;;;28.05;;
3321;SDS011;1673;51.388;7.086;2022-12-11T08:17:38;75.97;;;29.58;;
3321;SDS011;1673;51.388;7.086;2022-12-11T08:20:08;77.20;;;28.45;;
3321;SDS011;1673;51.388;7.086;2022-12-11T08:22:38;87.55;;;29.05;;
3321;SDS011;1673;51.388;7.086;2022-12-11T08:25:08;76.43;;;27.65;;
3321;SDS011;1673;51.388;7.086;2022-12-11T08:27:38;87.18;;;31.00;;
3321;SDS011;1673;51.388;7.086;2022-12-11T08:30:08;77.67;;;27.20;;
3321;SDS011;1673;51.388;7.086;2022-12-11T08:32:41;82.70;;;30.65;;
3321;SDS011;1673;51.388;7.086;2022-12-11T08:35:11;83.40;;;30.20;;
3321;SDS011;1673;51.388;7.086;2022-12-11T08:37:40;79.53;;;28.13;;
3321;SDS011;1673;51.388;7.086;2022-12-11T08:40:10;75.78;;;28.70;;
3321;SDS011;1673;51.388;7.086;2022-12-11T08:42:40;72.22;;;27.67;;
3321;SDS011;1673;51.388;7.086;2022-12-11T08:45:10;85.72;;;30.98;;
3321;SDS011;1673;51.388;7.086;2022-12-11T08:47:42;77.65;;;28.52;;
3321;SDS011;1673;51.388;7.086;2022-12-11T08:50:12;87.10;;;31.02;;
3321;SDS011;1673;51.388;7.086;2022-12-11T08:52:41;82.50;;;30.10;;
3321;SDS011;1673;51.388;7.086;2022-12-11T08:55:11;87.57;;;31.42;;
3321;SDS011;1673;51.388;7.086;2022-12-11T08:57:41;92.87;;;30.80;;
3321;SDS011;1673;51.388;7.086;2022-12-11T09:00:11;78.40;;;28.83;;
3321;SDS011;1673;51.388;7.086;2022-12-11T09:02:44;85.57;;;29.85;;
3321;SDS011;1673;51.388;7.086;2022-12-11T09:05:14;82.78;;;30.13;;
3321;SDS011;1673;51.388;7.086;2022-12-11T09:07:45;84.25;;;33.03;;
3321;SDS011;1673;51.388;7.086;2022-12-11T09:10:15;81.70;;;30.53;;
3321;SDS011;1673;51.388;7.086;2022-12-11T09:12:44;81.63;;;30.15;;
3321;SDS011;1673;51.388;7.086;2022-12-11T09:15:14;87.03;;;31.95;;
3321;SDS011;1673;51.388;7.086;2022-12-11T09:17:46;81.45;;;29.75;;
3321;SDS011;1673;51.388;7.086;2022-12-11T09:20:16;85.83;;;30.90;;
3321;SDS011;1673;51.388;7.086;2022-12-11T09:22:45;83.65;;;30.45;;
3321;SDS011;1673;51.388;7.086;2022-12-11T09:25:15;86.18;;;31.55;;
3321;SDS011;1673;51.388;7.086;2022-12-11T09:27:45;88.18;;;32.92;;
3321;SDS011;1673;51.388;7.086;2022-12-11T09:30:14;83.43;;;32.35;;
3321;SDS011;1673;51.388;7.086;2022-12-11T09:32:47;96.63;;;31.95;;
3321;SDS011;1673;51.388;7.086;2022-12-11T09:35:16;83.25;;;30.33;;
3321;SDS011;1673;51.388;7.086;2022-12-11T09:37:46;81.90;;;32.70;;
3321;SDS011;1673;51.388;7.086;2022-12-11T09:40:16;85.78;;;32.47;;
3321;SDS011;1673;51.388;7.086;2022-12-11T09:42:48;96.20;;;32.97;;
3321;SDS011;1673;51.388;7.086;2022-12-11T09:45:21;85.00;;;31.88;;
3321;SDS011;1673;51.388;7.086;2022-12-11T09:47:54;75.25;;;28.00;;
3321;SDS011;1673;51.388;7.086;2022-12-11T09:50:25;80.47;;;29.38;;
3321;SDS011;1673;51.388;7.086;2022-12-11T09:53:02;77.47;;;30.63;;
3321;SDS011;1673;51.388;7.086;2022-12-11T09:55:37;83.57;;;30.85;;
3321;SDS011;1673;51.388;7.086;2022-12-11T09:58:13;83.60;;;31.10;;
3321;SDS011;1673;51.388;7.086;2022-12-11T10:00:50;77.50;;;31.50;;
3321;SDS011;1673;51.388;7.086;2022-12-11T10:03:32;94.93;;;32.78;;
3321;SDS011;1673;51.388;7.086;2022-12-11T10:06:11;82.57;;;32.50;;
3321;SDS011;1673;51.388;7.086;2022-12-11T10:08:48;81.50;;;29.53;;
3321;SDS011;1673;51.388;7.086;2022-12-11T10:11:29;74.00;;;29.60;;
3321;SDS011;1673;51.388;7.086;2022-12-11T10:14:24;70.25;;;27.90;;
3321;SDS011;1673;51.388;7.086;2022-12-11T10:16:58;71.43;;;26.70;;
3321;SDS011;1673;51.388;7.086;2022-12-11T10:19:35;72.80;;;26.77;;
3321;SDS011;1673;51.388;7.086;2022-12-11T10:22:07;74.57;;;28.73;;
3321;SDS011;1673;51.388;7.086;2022-12-11T10:24:43;68.82;;;26.55;;
3321;SDS011;1673;51.388;7.086;2022-12-11T10:27:37;70.60;;;26.63;;
3321;SDS011;1673;51.388;7.086;2022-12-11T10:30:12;65.68;;;25.95;;
3321;SDS011;1673;51.388;7.086;2022-12-11T10:32:50;68.68;;;27.67;;
3321;SDS011;1673;51.388;7.086;2022-12-11T10:35:32;71.47;;;27.88;;
3321;SDS011;1673;51.388;7.086;2022-12-11T10:38:11;77.07;;;28.95;;
3321;SDS011;1673;51.388;7.086;2022-12-11T10:40:44;89.35;;;27.98;;
3321;SDS011;1673;51.388;7.086;2022-12-11T10:43:15;74.50;;;26.80;;
3321;SDS011;1673;51.388;7.086;2022-12-11T10:45:51;73.45;;;27.80;;
3321;SDS011;1673;51.388;7.086;2022-12-11T10:48:22;74.00;;;29.00;;
3321;SDS011;1673;51.388;7.086;2022-12-11T10:50:58;76.17;;;28.70;;
3321;SDS011;1673;51.388;7.086;2022-12-11T10:53:29;80.50;;;29.40;;
3321;SDS011;1673;51.388;7.086;2022-12-11T10:55:59;80.60;;;30.20;;
3321;SDS011;1673;51.388;7.086;2022-12-11T10:58:30;85.85;;;37.03;;
3321;SDS011;1673;51.388;7.086;2022-12-11T11:01:05;80.75;;;30.48;;
3321;SDS011;1673;51.388;7.086;2022-12-11T11:03:39;79.00;;;34.30;;
3321;SDS011;1673;51.388;7.086;2022-12-11T11:06:23;87.78;;;31.40;;
3321;SDS011;1673;51.388;7.086;2022-12-11T11:08:55;84.78;;;30.83;;
3321;SDS011;1673;51.388;7.086;2022-12-11T11:11:27;72.80;;;28.00;;
3321;SDS011;1673;51.388;7.086;2022-12-11T11:16:51;78.45;;;27.98;;
3321;SDS011;1673;51.388;7.086;2022-12-11T11:19:23;69.13;;;27.73;;
3321;SDS011;1673;51.388;7.086;2022-12-11T11:21:59;85.93;;;36.15;;
3321;SDS011;1673;51.388;7.086;2022-12-11T11:24:32;87.33;;;32.20;;
3321;SDS011;1673;51.388;7.086;2022-12-11T11:27:10;94.47;;;34.00;;
3321;SDS011;1673;51.388;7.086;2022-12-11T11:29:41;98.30;;;40.30;;
3321;SDS011;1673;51.388;7.086;2022-12-11T11:32:18;108.10;;;38.90;;
3321;SDS011;1673;51.388;7.086;2022-12-11T11:34:50;82.45;;;30.23;;
3321;SDS011;1673;51.388;7.086;2022-12-11T11:37:31;90.35;;;32.97;;
3321;SDS011;1673;51.388;7.086;2022-12-11T11:40:02;91.03;;;32.75;;
3321;SDS011;1673;51.388;7.086;2022-12-11T11:42:37;71.15;;;28.38;;
3321;SDS011;1673;51.388;7.086;2022-12-11T11:45:13;66.07;;;24.33;;
3321;SDS011;1673;51.388;7.086;2022-12-11T11:47:47;68.25;;;25.70;;
3321;SDS011;1673;51.388;7.086;2022-12-11T11:50:21;76.07;;;27.40;;
3321;SDS011;1673;51.388;7.086;2022-12-11T11:52:59;65.97;;;26.17;;
3321;SDS011;1673;51.388;7.086;2022-12-11T11:55:34;59.53;;;24.58;;
3321;SDS011;1673;51.388;7.086;2022-12-11T11:58:08;62.80;;;24.92;;
3321;SDS011;1673;51.388;7.086;2022-12-11T12:00:42;64.28;;;27.30;;
3321;SDS011;1673;51.388;7.086;2022-12-11T12:03:13;59.72;;;24.20;;
3321;SDS011;1673;51.388;7.086;2022-12-11T12:05:45;61.70;;;23.90;;
3321;SDS011;1673;51.388;7.086;2022-12-11T12:08:28;62.90;;;22.80;;
3321;SDS011;1673;51.388;7.086;2022-12-11T12:11:06;59.83;;;24.90;;
3321;SDS011;1673;51.388;7.086;2022-12-11T12:13:42;61.50;;;27.95;;
3321;SDS011;1673;51.388;7.086;2022-12-11T12:16:19;76.28;;;28.75;;
3321;SDS011;1673;51.388;7.086;2022-12-11T12:19:13;65.63;;;27.10;;
3321;SDS011;1673;51.388;7.086;2022-12-11T12:21:47;57.85;;;24.20;;
3321;SDS011;1673;51.388;7.086;2022-12-11T12:24:26;59.90;;;26.17;;
3321;SDS011;1673;51.388;7.086;2022-12-11T12:27:12;64.28;;;26.17;;
3321;SDS011;1673;51.388;7.086;2022-12-11T12:30:08;63.60;;;24.58;;
3321;SDS011;1673;51.388;7.086;2022-12-11T12:32:50;63.42;;;25.00;;
3321;SDS011;1673;51.388;7.086;2022-12-11T12:35:29;61.63;;;24.90;;
3321;SDS011;1673;51.388;7.086;2022-12-11T12:38:05;63.70;;;25.98;;
3321;SDS011;1673;51.388;7.086;2022-12-11T12:40:43;64.82;;;24.92;;
3321;SDS011;1673;51.388;7.086;2022-12-11T12:43:33;62.88;;;24.30;;
3321;SDS011;1673;51.388;7.086;2022-12-11T12:46:12;57.33;;;25.47;;
3321;SDS011;1673;51.388;7.086;2022-12-11T12:48:48;66.57;;;27.17;;
3321;SDS011;1673;51.388;7.086;2022-12-11T12:51:19;63.23;;;28.57;;
3321;SDS011;1673;51.388;7.086;2022-12-11T12:53:51;61.03;;;24.70;;
3321;SDS011;1673;51.388;7.086;2022-12-11T12:56:25;62.33;;;25.48;;
3321;SDS011;1673;51.388;7.086;2022-12-11T12:58:55;60.47;;;25.25;;
3321;SDS011;1673;51.388;7.086;2022-12-11T13:01:26;62.67;;;24.95;;
3321;SDS011;1673;51.388;7.086;2022-12-11T13:03:57;60.20;;;24.70;;
3321;SDS011;1673;51.388;7.086;2022-12-11T13:06:29;62.83;;;26.15;;
3321;SDS011;1673;51.388;7.086;2022-12-11T13:09:14;62.72;;;25.02;;
3321;SDS011;1673;51.388;7.086;2022-12-11T13:11:50;59.75;;;25.50;;
3321;SDS011;1673;51.388;7.086;2022-12-11T13:14:27;60.23;;;25.70;;
3321;SDS011;1673;51.388;7.086;2022-12-11T13:17:05;65.15;;;24.25;;
3321;SDS011;1673;51.388;7.086;2022-12-11T13:19:49;66.55;;;24.67;;
3321;SDS011;1673;51.388;7.086;2022-12-11T13:22:23;55.92;;;23.77;;
3321;SDS011;1673;51.388;7.086;2022-12-11T13:24:56;53.30;;;23.55;;
3321;SDS011;1673;51.388;7.086;2022-12-11T13:27:37;52.78;;;23.08;;
3321;SDS011;1673;51.388;7.086;2022-12-11T13:30:19;51.80;;;22.90;;
3321;SDS011;1673;51.388;7.086;2022-12-11T13:32:58;56.60;;;24.23;;
3321;SDS011;1673;51.388;7.086;2022-12-11T13:35:31;58.05;;;25.38;;
3321;SDS011;1673;51.388;7.086;2022-12-11T13:38:05;56.75;;;24.05;;
3321;SDS011;1673;51.388;7.086;2022-12-11T13:40:37;53.53;;;24.08;;
3321;SDS011;1673;51.388;7.086;2022-12-11T13:43:14;53.17;;;22.60;;
3321;SDS011;1673;51.388;7.086;2022-12-11T13:45:46;57.42;;;23.83;;
3321;SDS011;1673;51.388;7.086;2022-12-11T13:48:18;54.73;;;24.07;;
3321;SDS011;1673;51.388;7.086;2022-12-11T13:50:50;59.63;;;24.33;;
3321;SDS011;1673;51.388;7.086;2022-12-11T13:53:21;56.13;;;23.88;;
3321;SDS011;1673;51.388;7.086;2022-12-11T13:55:55;60.10;;;23.23;;
3321;SDS011;1673;51.388;7.086;2022-12-11T13:58:29;48.55;;;22.25;;
3321;SDS011;1673;51.388;7.086;2022-12-11T14:01:03;48.13;;;21.65;;
3321;SDS011;1673;51.388;7.086;2022-12-11T14:03:37;52.60;;;23.25;;
3321;SDS011;1673;51.388;7.086;2022-12-11T14:06:08;47.70;;;21.93;;
3321;SDS011;1673;51.388;7.086;2022-12-11T14:08:44;50.33;;;21.85;;
3321;SDS011;1673;51.388;7.086;2022-12-11T14:11:17;49.85;;;21.30;;
3321;SDS011;1673;51.388;7.086;2022-12-11T14:13:55;50.60;;;20.38;;
3321;SDS011;1673;51.388;7.086;2022-12-11T14:16:26;50.30;;;21.60;;
3321;SDS011;1673;51.388;7.086;2022-12-11T14:18:59;47.03;;;20.95;;
3321;SDS011;1673;51.388;7.086;2022-12-11T14:21:31;48.45;;;21.13;;
3321;SDS011;1673;51.388;7.086;2022-12-11T14:24:01;50.90;;;21.60;;
3321;SDS011;1673;51.388;7.086;2022-12-11T14:26:32;51.85;;;21.08;;
3321;SDS011;1673;51.388;7.086;2022-12-11T14:29:21;52.20;;;21.25;;
3321;SDS011;1673;51.388;7.086;2022-12-11T14:31:52;53.33;;;22.17;;
3321;SDS011;1673;51.388;7.086;2022-12-11T14:34:23;49.63;;;20.98;;
3321;SDS011;1673;51.388;7.086;2022-12-11T14:36:54;52.80;;;20.85;;
3321;SDS011;1673;51.388;7.086;2022-12-11T14:39:25;57.13;;;23.17;;
3321;SDS011;1673;51.388;7.086;2022-12-11T14:41:57;55.20;;;23.73;;
3321;SDS011;1673;51.388;7.086;2022-12-11T14:44:32;51.45;;;21.83;;
3321;SDS011;1673;51.388;7.086;2022-12-11T14:47:16;49.72;;;22.60;;
3321;SDS011;1673;51.388;7.086;2022-12-11T14:49:48;55.15;;;24.00;;
3321;SDS011;1673;51.388;7.086;2022-12-11T14:52:20;55.70;;;23.80;;
3321;SDS011;1673;51.388;7.086;2022-12-11T14:54:53;52.22;;;23.20;;
3321;SDS011;1673;51.388;7.086;2022-12-11T14:57:25;52.38;;;23.30;;
3321;SDS011;1673;51.388;7.086;2022-12-11T15:00:00;56.33;;;24.08;;
3321;SDS011;1673;51.388;7.086;2022-12-11T15:02:30;53.38;;;23.50;;
3321;SDS011;1673;51.388;7.086;2022-12-11T15:05:04;55.77;;;23.07;;
3321;SDS011;1673;51.388;7.086;2022-12-11T15:07:41;52.40;;;23.23;;
3321;SDS011;1673;51.388;7.086;2022-12-11T15:10:21;56.97;;;23.92;;
3321;SDS011;1673;51.388;7.086;2022-12-11T15:12:52;53.90;;;23.92;;
3321;SDS011;1673;51.388;7.086;2022-12-11T15:15:25;52.53;;;23.10;;
3321;SDS011;1673;51.388;7.086;2022-12-11T15:17:56;58.53;;;24.08;;
3321;SDS011;1673;51.388;7.086;2022-12-11T15:20:26;60.53;;;25.10;;
3321;SDS011;1673;51.388;7.086;2022-12-11T15:22:58;56.83;;;22.87;;